EDNL weather

Leutkirch-Unterzeil Airport
Leutkirch, Baden-W├╝rttemberg, Germany

Public forecast

Using degrees Celsius for public forecast. Weather courtesy of forecast.io.

Closest aviation weather report (METAR) to Leutkirch-Unterzeil Airport

Closest report is Memmingen Allgau Airport, 12.0 nm (22.1 km) NE. Retrieved 2019/11/14 12:20 UTC (30 minutes ago):

EDJA 141220Z 04005KT CAVOK 04/M00 Q1002

Closest aviation forecast (TAF) to Leutkirch-Unterzeil Airport

Forecast is more than 12 hours old.

Closest forecast is Laupheim Air Base, 22.1 nm (40.9 km) N. Retrieved 2017/01/30 06:45 UTC (3 years ago):

TAF TAF COR ETHL 300542Z 3006/3018 22005KT 4000 BR SCT100 BKN220 BECMG 3008/3010 23005KT 6000 RA SCT040 BKN060 TEMPO 3009/3018 22012KT 3000 -FZRA BKN012 BKN020